createdAt,value
2018-04-12T00:00:50.139Z,100.10
2018-04-12T00:01:50.379Z,103.20
2018-04-12T00:02:50.620Z,104.60
2018-04-12T00:03:50.863Z,116.90
2018-04-12T00:04:51.103Z,106.80
2018-04-12T00:05:51.341Z,105.80
2018-04-12T00:06:51.583Z,116.10
2018-04-12T00:07:51.825Z,115.70
2018-04-12T00:08:52.063Z,114.30
2018-04-12T00:09:52.303Z,114.00
2018-04-12T00:10:52.544Z,113.60
2018-04-12T00:11:52.782Z,120.10
2018-04-12T00:12:53.020Z,116.50
2018-04-12T00:13:53.265Z,121.20
2018-04-12T00:14:53.501Z,122.60
2018-04-12T00:15:53.737Z,121.90
2018-04-12T00:16:53.977Z,123.80
2018-04-12T00:17:54.219Z,118.10
2018-04-12T00:18:54.458Z,122.90
2018-04-12T00:19:54.701Z,123.30
2018-04-12T00:20:54.941Z,118.70
2018-04-12T00:21:55.179Z,124.20
2018-04-12T00:22:55.416Z,121.10
2018-04-12T00:23:55.655Z,125.50
2018-04-12T00:24:55.899Z,122.60
2018-04-12T00:25:56.138Z,125.80
2018-04-12T00:26:56.377Z,129.60
2018-04-12T00:27:56.617Z,125.20
2018-04-12T00:28:56.855Z,118.70
2018-04-12T00:29:57.094Z,122.90
2018-04-12T00:30:57.331Z,126.90
2018-04-12T00:31:57.571Z,122.20
2018-04-12T00:32:57.811Z,122.50
2018-04-12T00:33:58.051Z,125.70
2018-04-12T00:34:58.290Z,119.80
2018-04-12T00:35:58.533Z,125.00
2018-04-12T00:36:58.772Z,119.20
2018-04-12T00:37:59.010Z,118.50
2018-04-12T00:38:59.250Z,125.70
2018-04-12T00:39:59.497Z,125.10
2018-04-12T00:40:59.731Z,119.20
2018-04-12T00:41:59.970Z,117.90
2018-04-12T00:43:00.210Z,122.10
2018-04-12T00:44:00.449Z,127.00
2018-04-12T00:45:00.690Z,129.00
2018-04-12T00:46:00.930Z,135.30
2018-04-12T00:47:01.170Z,125.60
2018-04-12T00:48:01.407Z,124.90
2018-04-12T00:49:01.650Z,126.60
2018-04-12T00:50:01.890Z,130.90
2018-04-12T00:51:02.128Z,136.00
2018-04-12T00:52:02.370Z,131.20
2018-04-12T00:53:02.607Z,137.40
2018-04-12T00:54:02.846Z,144.50
2018-04-12T00:55:03.086Z,141.30
2018-04-12T00:56:03.328Z,141.00
2018-04-12T00:57:03.569Z,137.40
2018-04-12T00:58:03.807Z,139.50
2018-04-12T00:59:04.049Z,130.30
2018-04-12T01:00:04.286Z,140.20
2018-04-12T01:01:04.528Z,137.30
2018-04-12T01:02:04.768Z,141.90
2018-04-12T01:03:05.009Z,145.20
2018-04-12T01:04:05.243Z,141.00
2018-04-12T01:05:05.489Z,141.10
2018-04-12T01:06:05.723Z,143.90
2018-04-12T01:07:05.964Z,142.80
2018-04-12T01:08:06.205Z,141.70
2018-04-12T01:09:06.445Z,146.90
2018-04-12T01:10:06.686Z,144.00
2018-04-12T01:11:06.925Z,142.70
2018-04-12T01:12:07.163Z,145.20
2018-04-12T01:13:07.405Z,144.70
2018-04-12T01:14:07.643Z,153.50
2018-04-12T01:15:07.883Z,154.40
2018-04-12T01:16:08.122Z,146.10
2018-04-12T01:17:08.367Z,148.50
2018-04-12T01:18:08.600Z,157.70
2018-04-12T01:19:08.842Z,145.00
2018-04-12T01:20:09.073Z,150.70
2018-04-12T01:21:09.315Z,154.30
2018-04-12T01:22:09.556Z,152.00
2018-04-12T01:23:09.795Z,150.50
2018-04-12T01:24:10.035Z,149.80
2018-04-12T01:25:10.275Z,157.40
2018-04-12T01:26:10.513Z,143.80
2018-04-12T01:27:10.754Z,139.60
2018-04-12T01:28:10.993Z,143.10
2018-04-12T01:29:11.233Z,141.70
2018-04-12T01:30:11.473Z,149.20
2018-04-12T01:31:11.710Z,144.20
2018-04-12T01:32:11.947Z,144.10
2018-04-12T01:33:12.194Z,127.50
2018-04-12T01:34:12.431Z,147.70
2018-04-12T01:35:12.676Z,143.80
2018-04-12T01:36:12.911Z,139.80
2018-04-12T01:37:13.152Z,147.70
2018-04-12T01:38:13.392Z,153.70
2018-04-12T01:39:13.631Z,156.20
2018-04-12T01:40:13.872Z,134.70
2018-04-12T01:41:14.111Z,153.60
2018-04-12T01:42:14.351Z,144.70
2018-04-12T01:43:14.591Z,144.60
2018-04-12T01:44:14.831Z,151.00
2018-04-12T01:45:15.070Z,147.10
2018-04-12T01:46:15.315Z,151.50
2018-04-12T01:47:15.549Z,158.50
2018-04-12T01:48:15.790Z,147.20
2018-04-12T01:49:16.028Z,158.00
2018-04-12T01:50:16.269Z,153.90
2018-04-12T01:51:16.508Z,157.30
2018-04-12T01:52:16.749Z,153.30
2018-04-12T01:53:17.023Z,153.20
2018-04-12T01:54:17.230Z,142.10
2018-04-12T01:55:17.469Z,154.20
2018-04-12T01:56:17.710Z,158.00
2018-04-12T01:57:17.950Z,161.30
2018-04-12T01:58:18.189Z,156.60
2018-04-12T01:59:18.430Z,151.00
2018-04-12T02:00:18.668Z,151.20
2018-04-12T02:01:18.906Z,145.10
2018-04-12T02:02:19.145Z,147.70
2018-04-12T02:03:19.387Z,154.90
2018-04-12T02:04:19.628Z,148.20
2018-04-12T02:05:19.869Z,156.30
2018-04-12T02:06:20.105Z,141.20
2018-04-12T02:07:20.353Z,152.10
2018-04-12T02:08:20.591Z,158.60
2018-04-12T02:09:20.828Z,160.30
2018-04-12T02:10:21.071Z,158.70
2018-04-12T02:11:21.311Z,155.80
2018-04-12T02:12:21.552Z,144.20
2018-04-12T02:13:21.797Z,144.90
2018-04-12T02:14:22.033Z,129.30
2018-04-12T02:15:22.274Z,141.40
2018-04-12T02:16:22.513Z,138.20
2018-04-12T02:17:22.756Z,145.50
2018-04-12T02:18:22.994Z,123.60
2018-04-12T02:19:23.233Z,118.40
2018-04-12T02:20:23.473Z,136.60
2018-04-12T02:21:23.715Z,141.80
2018-04-12T02:22:23.956Z,143.60
2018-04-12T02:23:24.194Z,148.20
2018-04-12T02:24:24.431Z,153.60
2018-04-12T02:25:24.674Z,150.00
2018-04-12T02:26:24.913Z,151.80
2018-04-12T02:27:25.148Z,158.10
2018-04-12T02:28:25.389Z,137.60
2018-04-12T02:29:25.649Z,137.90
2018-04-12T02:30:25.862Z,141.10
2018-04-12T02:31:26.108Z,146.00
2018-04-12T02:32:26.342Z,144.90
2018-04-12T02:33:26.581Z,144.70
2018-04-12T02:34:26.820Z,143.50
2018-04-12T02:35:27.061Z,139.80
2018-04-12T02:36:27.297Z,136.80
2018-04-12T02:37:27.539Z,151.60
2018-04-12T02:38:27.778Z,144.20
2018-04-12T02:39:28.022Z,142.40
2018-04-12T02:40:28.259Z,143.10
2018-04-12T02:41:28.499Z,155.00
2018-04-12T02:42:28.739Z,157.30
2018-04-12T02:43:28.980Z,136.50
2018-04-12T02:44:29.220Z,134.40
2018-04-12T02:45:29.459Z,140.30
2018-04-12T02:46:29.697Z,141.60
2018-04-12T02:47:29.938Z,138.20
2018-04-12T02:48:30.178Z,143.00
2018-04-12T02:49:30.418Z,140.40
2018-04-12T02:50:30.656Z,147.40
2018-04-12T02:51:30.897Z,145.40
2018-04-12T02:52:31.134Z,136.60
2018-04-12T02:53:31.372Z,129.60
2018-04-12T02:54:31.612Z,140.80
2018-04-12T02:55:31.851Z,133.60
2018-04-12T02:56:32.106Z,152.20
2018-04-12T02:57:32.326Z,153.70
2018-04-12T02:58:32.564Z,146.00
2018-04-12T02:59:32.803Z,148.00
2018-04-12T03:00:33.042Z,151.30
2018-04-12T03:01:33.285Z,147.30
2018-04-12T03:02:33.533Z,142.90
2018-04-12T03:03:33.771Z,135.60
2018-04-12T03:04:34.003Z,139.20
2018-04-12T03:05:34.242Z,140.70
2018-04-12T03:06:34.483Z,144.80
2018-04-12T03:07:34.724Z,141.30
2018-04-12T03:08:34.964Z,137.70
2018-04-12T03:09:35.205Z,132.90
2018-04-12T03:10:35.442Z,146.00
2018-04-12T03:11:35.682Z,141.30
2018-04-12T03:12:35.923Z,154.40
2018-04-12T03:13:36.162Z,149.10
2018-04-12T03:14:36.399Z,148.30
2018-04-12T03:15:36.638Z,148.20
2018-04-12T03:16:36.876Z,141.20
2018-04-12T03:17:37.116Z,139.30
2018-04-12T03:18:37.357Z,136.10
2018-04-12T03:19:37.597Z,144.80
2018-04-12T03:20:37.836Z,133.30
2018-04-12T03:21:38.081Z,131.70
2018-04-12T03:22:38.315Z,125.00
2018-04-12T03:23:38.558Z,135.90
2018-04-12T03:24:38.791Z,128.80
2018-04-12T03:25:39.038Z,136.00
2018-04-12T03:26:39.276Z,122.40
2018-04-12T03:27:39.517Z,132.20
2018-04-12T03:28:39.758Z,129.80
2018-04-12T03:29:39.995Z,127.40
2018-04-12T03:30:40.241Z,123.00
2018-04-12T03:31:40.479Z,130.70
2018-04-12T03:32:40.720Z,132.20
2018-04-12T03:33:40.959Z,134.30
2018-04-12T03:34:41.196Z,133.00
2018-04-12T03:35:41.448Z,136.20
2018-04-12T03:36:41.688Z,135.80
2018-04-12T03:37:41.923Z,132.40
2018-04-12T03:38:42.170Z,140.70
2018-04-12T03:39:42.401Z,137.20
2018-04-12T03:40:42.644Z,139.60
2018-04-12T03:41:42.869Z,140.50
2018-04-12T03:42:43.133Z,137.30
2018-04-12T03:43:43.370Z,142.20
2018-04-12T03:44:43.612Z,130.20
2018-04-12T03:45:43.851Z,136.80
2018-04-12T03:46:44.095Z,140.50
2018-04-12T03:47:44.334Z,135.20
2018-04-12T03:48:44.669Z,132.00
2018-04-12T03:49:44.857Z,136.00
2018-04-12T03:50:45.053Z,133.20
2018-04-12T03:51:45.293Z,126.30
2018-04-12T03:52:45.533Z,138.30
2018-04-12T03:53:45.775Z,136.60
2018-04-12T03:54:46.017Z,130.90
2018-04-12T03:55:46.253Z,132.10
2018-04-12T03:56:46.495Z,141.90
2018-04-12T03:57:46.735Z,130.80
2018-04-12T03:58:46.977Z,132.40
2018-04-12T03:59:47.211Z,139.50
2018-04-12T04:00:47.453Z,139.10
2018-04-12T04:01:47.740Z,125.80
2018-04-12T04:02:47.930Z,138.60
2018-04-12T04:03:48.170Z,137.10
2018-04-12T04:04:48.415Z,129.60
2018-04-12T04:05:48.650Z,144.50
2018-04-12T04:06:48.890Z,135.90
2018-04-12T04:07:49.132Z,139.90
2018-04-12T04:08:49.370Z,137.60
2018-04-12T04:09:49.611Z,138.50
2018-04-12T04:10:49.851Z,131.60
2018-04-12T04:11:50.089Z,140.60
2018-04-12T04:12:50.330Z,139.80
2018-04-12T04:13:50.569Z,140.30
2018-04-12T04:14:50.810Z,136.20
2018-04-12T04:15:51.050Z,136.50
2018-04-12T04:16:51.290Z,145.20
2018-04-12T04:17:51.530Z,138.00
2018-04-12T04:18:51.772Z,141.20
2018-04-12T04:19:52.015Z,145.00
2018-04-12T04:20:52.315Z,143.80
2018-04-12T04:21:52.493Z,137.90
2018-04-12T04:22:52.732Z,147.40
2018-04-12T04:23:52.978Z,139.50
2018-04-12T04:24:53.211Z,141.40
2018-04-12T04:25:53.450Z,149.90
2018-04-12T04:26:53.692Z,144.30
2018-04-12T04:27:53.932Z,150.50
2018-04-12T04:28:54.171Z,137.70
2018-04-12T04:29:54.422Z,147.00
2018-04-12T04:30:54.654Z,149.80
2018-04-12T04:31:54.895Z,147.40
2018-04-12T04:32:55.137Z,135.80
2018-04-12T04:33:55.378Z,152.60
2018-04-12T04:34:55.612Z,123.20
2018-04-12T04:35:55.853Z,143.20
2018-04-12T04:36:56.095Z,133.50
2018-04-12T04:37:56.334Z,133.20
2018-04-12T04:38:56.575Z,143.40
2018-04-12T04:39:56.823Z,146.20
2018-04-12T04:40:57.056Z,141.70
2018-04-12T04:41:57.296Z,140.70
2018-04-12T04:42:57.536Z,137.20
2018-04-12T04:43:57.780Z,140.30
2018-04-12T04:44:58.025Z,136.90
2018-04-12T04:45:58.261Z,134.20
2018-04-12T04:46:58.501Z,144.30
2018-04-12T04:47:58.743Z,136.20
2018-04-12T04:48:58.983Z,150.90
2018-04-12T04:49:59.222Z,145.80
2018-04-12T04:50:59.463Z,136.80
2018-04-12T04:51:59.704Z,142.60
2018-04-12T04:52:59.943Z,150.50
2018-04-12T04:54:00.185Z,145.40
2018-04-12T04:55:00.445Z,149.00
2018-04-12T04:56:00.663Z,144.10
2018-04-12T04:57:00.905Z,139.00
2018-04-12T04:58:01.142Z,145.60
2018-04-12T04:59:01.381Z,141.90
2018-04-12T05:00:01.622Z,137.80
2018-04-12T05:01:01.861Z,134.40
2018-04-12T05:02:02.103Z,143.40
2018-04-12T05:03:02.336Z,140.80
2018-04-12T05:04:02.574Z,137.50
2018-04-12T05:05:02.815Z,135.50
2018-04-12T05:06:03.082Z,144.80
2018-04-12T05:07:03.325Z,135.30
2018-04-12T05:08:03.567Z,140.40
2018-04-12T05:09:03.812Z,136.00
2018-04-12T05:10:04.049Z,135.60
2018-04-12T05:11:04.288Z,129.80
2018-04-12T05:12:04.526Z,137.90
2018-04-12T05:13:04.769Z,134.80
2018-04-12T05:14:05.011Z,113.00
2018-04-12T05:15:05.252Z,125.70
2018-04-12T05:16:05.488Z,126.00
2018-04-12T05:17:05.732Z,134.10
2018-04-12T05:18:05.972Z,144.30
2018-04-12T05:19:06.213Z,132.70
2018-04-12T05:20:06.454Z,132.50
2018-04-12T05:21:06.696Z,132.20
2018-04-12T05:22:06.937Z,133.20
2018-04-12T05:23:07.177Z,124.50
2018-04-12T05:24:07.416Z,123.90
2018-04-12T05:25:07.666Z,134.40
2018-04-12T05:26:07.898Z,130.80
2018-04-12T05:27:08.137Z,129.30
2018-04-12T05:28:08.374Z,130.90
2018-04-12T05:29:08.623Z,122.10
2018-04-12T05:30:08.857Z,124.90
2018-04-12T05:31:09.097Z,125.70
2018-04-12T05:32:09.337Z,123.40
2018-04-12T05:33:09.592Z,128.80
2018-04-12T05:34:09.818Z,125.40
2018-04-12T05:35:10.062Z,129.00
2018-04-12T05:36:10.298Z,120.00
2018-04-12T05:37:10.540Z,114.60
2018-04-12T05:38:10.786Z,119.90
2018-04-12T05:39:11.024Z,109.20
2018-04-12T05:40:11.267Z,114.10
2018-04-12T05:41:11.504Z,119.90
2018-04-12T05:42:11.746Z,123.30
2018-04-12T05:43:11.985Z,118.90
2018-04-12T05:44:12.227Z,115.70
2018-04-12T05:45:12.473Z,116.50
2018-04-12T05:46:12.713Z,111.10
2018-04-12T05:47:12.954Z,117.90
2018-04-12T05:48:13.194Z,118.70
2018-04-12T05:49:13.439Z,112.60
2018-04-12T05:50:13.676Z,107.70
2018-04-12T05:51:13.918Z,111.00
2018-04-12T05:52:14.161Z,114.60
2018-04-12T05:53:14.405Z,107.20
2018-04-12T05:54:14.645Z,113.10
2018-04-12T05:55:14.889Z,109.20
2018-04-12T05:56:15.134Z,111.10
2018-04-12T05:57:15.375Z,103.00
2018-04-12T05:58:15.615Z,108.70
2018-04-12T05:59:15.857Z,111.40
2018-04-12T06:00:16.102Z,119.80
2018-04-12T06:01:16.339Z,114.00
2018-04-12T06:02:16.574Z,106.00
2018-04-12T06:03:16.814Z,114.20
2018-04-12T06:04:17.060Z,109.60
2018-04-12T06:05:17.297Z,107.40
2018-04-12T06:06:17.538Z,105.50
2018-04-12T06:07:17.781Z,104.80
2018-04-12T06:08:18.021Z,115.70
2018-04-12T06:09:18.265Z,108.10
2018-04-12T06:10:18.503Z,115.30
2018-04-12T06:11:18.746Z,115.70
2018-04-12T06:12:18.987Z,108.30
2018-04-12T06:13:19.228Z,118.10
2018-04-12T06:14:19.472Z,119.80
2018-04-12T06:15:19.712Z,112.60
2018-04-12T06:16:19.954Z,116.60
2018-04-12T06:17:20.195Z,117.50
2018-04-12T06:18:20.439Z,118.10
2018-04-12T06:19:20.682Z,111.80
2018-04-12T06:20:20.920Z,106.80
2018-04-12T06:21:21.216Z,104.30
2018-04-12T06:22:21.408Z,120.90
2018-04-12T06:23:21.643Z,118.80
2018-04-12T06:24:21.885Z,104.10
2018-04-12T06:25:22.126Z,103.60
2018-04-12T06:26:22.367Z,109.20
2018-04-12T06:27:22.610Z,104.50
2018-04-12T06:28:22.858Z,101.60
2018-04-12T06:29:23.093Z,107.80
2018-04-12T06:30:23.335Z,99.30
2018-04-12T06:31:23.575Z,104.50
2018-04-12T06:32:23.815Z,100.90
2018-04-12T06:33:24.058Z,108.50
2018-04-12T06:34:24.297Z,102.80
2018-04-12T06:35:24.543Z,100.20
2018-04-12T06:36:24.784Z,101.40
2018-04-12T06:37:25.029Z,100.00
2018-04-12T06:38:25.266Z,103.20
2018-04-12T06:39:25.505Z,106.30
2018-04-12T06:40:25.749Z,100.40
2018-04-12T06:41:25.993Z,105.20
2018-04-12T06:42:26.234Z,104.50
2018-04-12T06:43:26.474Z,103.50
2018-04-12T06:44:26.714Z,103.10
2018-04-12T06:45:26.954Z,108.80
2018-04-12T06:46:27.198Z,106.40
2018-04-12T06:47:27.438Z,102.90
2018-04-12T06:48:27.684Z,100.90
2018-04-12T06:49:27.920Z,101.50
2018-04-12T06:50:28.163Z,90.50
2018-04-12T06:51:28.406Z,97.70
2018-04-12T06:52:28.650Z,102.60
2018-04-12T06:53:28.889Z,97.30
2018-04-12T06:54:29.135Z,94.80
2018-04-12T06:55:29.383Z,96.70
2018-04-12T06:56:29.626Z,93.80
2018-04-12T06:57:29.863Z,94.50
2018-04-12T06:58:30.109Z,89.00
2018-04-12T06:59:30.355Z,89.70
2018-04-12T07:00:30.597Z,92.90
2018-04-12T07:01:30.836Z,92.10
2018-04-12T07:02:31.079Z,95.80
2018-04-12T07:03:31.321Z,94.30
2018-04-12T07:04:31.564Z,95.20
2018-04-12T07:05:31.812Z,96.30
2018-04-12T07:06:32.054Z,95.20
2018-04-12T07:07:32.294Z,79.00
2018-04-12T07:08:32.537Z,98.90
2018-04-12T07:09:32.781Z,100.70
2018-04-12T07:10:33.025Z,87.90
2018-04-12T07:11:33.268Z,89.90
2018-04-12T07:12:33.514Z,93.10
2018-04-12T07:13:33.759Z,90.60
2018-04-12T07:14:34.000Z,87.50
2018-04-12T07:15:34.245Z,81.20
2018-04-12T07:16:34.486Z,84.50
2018-04-12T07:17:34.732Z,87.10
2018-04-12T07:18:34.976Z,89.90
2018-04-12T07:19:35.220Z,85.50
2018-04-12T07:20:35.466Z,77.30
2018-04-12T07:21:35.708Z,83.10
2018-04-12T07:22:35.953Z,86.50
2018-04-12T07:23:36.201Z,78.50
2018-04-12T07:24:36.442Z,79.30
2018-04-12T07:25:36.687Z,85.70
2018-04-12T07:26:36.928Z,83.00
2018-04-12T07:27:37.173Z,85.10
2018-04-12T07:28:37.416Z,84.30
2018-04-12T07:29:37.662Z,81.10
2018-04-12T07:30:37.906Z,80.40
2018-04-12T07:31:38.152Z,94.40
2018-04-12T07:32:38.396Z,83.10
2018-04-12T07:33:38.634Z,71.80
2018-04-12T07:34:38.878Z,77.70
2018-04-12T07:35:39.122Z,82.30
2018-04-12T07:36:39.365Z,73.80
2018-04-12T07:37:39.609Z,79.30
2018-04-12T07:38:39.850Z,82.10
2018-04-12T07:39:40.094Z,77.10
2018-04-12T07:40:40.343Z,76.10
2018-04-12T07:41:40.584Z,82.20
2018-04-12T07:42:40.823Z,74.80
2018-04-12T07:43:41.081Z,85.10
2018-04-12T07:44:41.311Z,81.10
2018-04-12T07:45:41.557Z,75.50
2018-04-12T07:46:41.801Z,80.70
2018-04-12T07:47:42.044Z,76.40
2018-04-12T07:48:42.288Z,79.80
2018-04-12T07:49:42.528Z,79.70
2018-04-12T07:50:42.774Z,79.80
2018-04-12T07:51:43.015Z,81.50
2018-04-12T07:52:43.254Z,82.00
2018-04-12T07:53:43.498Z,75.90
2018-04-12T07:54:43.741Z,78.30
2018-04-12T07:55:43.984Z,74.40
2018-04-12T07:56:44.231Z,79.70
2018-04-12T07:57:44.471Z,79.50
2018-04-12T07:58:44.714Z,77.10
2018-04-12T07:59:44.964Z,75.80
2018-04-12T08:00:45.213Z,74.70
2018-04-12T08:01:45.451Z,75.20
2018-04-12T08:02:45.697Z,73.40
2018-04-12T08:03:45.940Z,73.00
2018-04-12T08:04:46.187Z,76.40
2018-04-12T08:05:46.472Z,75.20
2018-04-12T08:06:46.674Z,71.80
2018-04-12T08:07:46.920Z,74.60
2018-04-12T08:08:47.165Z,71.30
2018-04-12T08:09:47.415Z,68.90
2018-04-12T08:10:47.662Z,70.50
2018-04-12T08:11:47.910Z,72.60
2018-04-12T08:12:48.163Z,72.50
2018-04-12T08:13:48.405Z,73.50
2018-04-12T08:14:48.653Z,71.10
2018-04-12T08:15:48.896Z,71.70
2018-04-12T08:16:49.144Z,70.60
2018-04-12T08:17:49.391Z,70.60
2018-04-12T08:18:49.639Z,72.10
2018-04-12T08:19:49.886Z,72.10
2018-04-12T08:20:50.132Z,71.90
2018-04-12T08:21:50.380Z,76.60
2018-04-12T08:22:50.627Z,73.00
2018-04-12T08:23:50.874Z,69.20
2018-04-12T08:24:51.125Z,68.80
2018-04-12T08:25:51.374Z,72.30
2018-04-12T08:26:51.622Z,69.80
2018-04-12T08:27:51.870Z,73.10
2018-04-12T08:28:52.151Z,71.70
2018-04-12T08:29:52.366Z,75.20
2018-04-12T08:30:52.618Z,72.30
2018-04-12T08:31:52.865Z,67.60
2018-04-12T08:32:53.110Z,68.00
2018-04-12T08:33:53.359Z,72.70
2018-04-12T08:34:53.607Z,69.30
2018-04-12T08:35:53.859Z,66.60
2018-04-12T08:36:54.109Z,66.70
2018-04-12T08:37:54.354Z,66.90
2018-04-12T08:38:54.606Z,66.60
2018-04-12T08:39:54.852Z,68.50
2018-04-12T08:40:55.103Z,70.30
2018-04-12T08:41:55.356Z,65.40
2018-04-12T08:42:55.602Z,70.10
2018-04-12T08:43:55.855Z,63.90
2018-04-12T08:44:56.099Z,65.90
2018-04-12T08:45:56.415Z,61.60
2018-04-12T08:46:56.596Z,62.40
2018-04-12T08:47:56.846Z,66.30
2018-04-12T08:48:57.095Z,65.00
2018-04-12T08:49:57.345Z,62.40
2018-04-12T08:50:57.592Z,60.70
2018-04-12T08:51:57.845Z,60.70
2018-04-12T08:52:58.097Z,63.10
2018-04-12T08:53:58.347Z,62.80
2018-04-12T08:54:58.597Z,62.30
2018-04-12T08:55:58.850Z,61.20
2018-04-12T08:56:59.104Z,59.80
2018-04-12T08:57:59.349Z,61.40
2018-04-12T08:58:59.602Z,64.80
2018-04-12T08:59:59.852Z,62.60
2018-04-12T09:01:00.103Z,58.40
2018-04-12T09:02:00.353Z,62.70
2018-04-12T09:03:00.605Z,63.30
2018-04-12T09:04:00.857Z,60.00
2018-04-12T09:05:01.108Z,59.00
2018-04-12T09:06:01.361Z,59.20
2018-04-12T09:07:01.614Z,56.10
2018-04-12T09:08:01.866Z,55.80
2018-04-12T09:09:02.115Z,55.30
2018-04-12T09:10:02.374Z,58.60
2018-04-12T09:11:02.621Z,58.30
2018-04-12T09:12:02.872Z,53.60
2018-04-12T09:13:03.126Z,55.90
2018-04-12T09:14:03.379Z,60.20
2018-04-12T09:15:03.633Z,58.90
2018-04-12T09:16:03.884Z,53.60
2018-04-12T09:17:04.141Z,58.90
2018-04-12T09:18:04.393Z,53.90
2018-04-12T09:19:04.648Z,49.20
2018-04-12T09:20:04.907Z,51.40
2018-04-12T09:21:05.155Z,53.70
2018-04-12T09:22:05.406Z,51.70
2018-04-12T09:23:05.661Z,51.00
2018-04-12T09:24:05.913Z,53.20
2018-04-12T09:25:06.167Z,45.30
2018-04-12T09:26:06.422Z,45.40
2018-04-12T09:27:06.676Z,47.50
2018-04-12T09:28:06.934Z,49.80
2018-04-12T09:29:07.184Z,46.60
2018-04-12T09:30:07.435Z,46.20
2018-04-12T09:31:07.691Z,50.60
2018-04-12T09:32:07.943Z,45.90
2018-04-12T09:33:08.196Z,50.10
2018-04-12T09:34:08.449Z,44.80
2018-04-12T09:35:08.705Z,47.60
2018-04-12T09:36:08.958Z,48.50
2018-04-12T09:37:09.211Z,48.50
2018-04-12T09:38:09.464Z,51.50
2018-04-12T09:39:09.717Z,51.50
2018-04-12T09:40:09.968Z,50.50
2018-04-12T09:41:10.222Z,51.10
2018-04-12T09:42:10.476Z,50.50
2018-04-12T09:43:10.726Z,50.30
2018-04-12T09:44:10.976Z,51.90
2018-04-12T09:45:11.230Z,49.00
2018-04-12T09:46:11.482Z,48.00
2018-04-12T09:47:11.736Z,48.60
2018-04-12T09:48:11.990Z,44.20
2018-04-12T09:49:12.255Z,44.50
2018-04-12T09:50:12.498Z,44.20
2018-04-12T09:51:12.751Z,45.50
2018-04-12T09:52:13.005Z,42.30
2018-04-12T09:53:13.260Z,46.10
2018-04-12T09:54:13.512Z,42.80
2018-04-12T09:55:13.767Z,45.00
2018-04-12T09:56:14.020Z,42.30
2018-04-12T09:57:14.273Z,42.90
2018-04-12T09:58:14.527Z,45.20
2018-04-12T09:59:14.782Z,44.60
2018-04-12T10:00:15.033Z,45.70
2018-04-12T10:01:15.288Z,44.10
2018-04-12T10:02:15.540Z,41.90
2018-04-12T10:03:15.796Z,41.20
2018-04-12T10:04:16.047Z,42.60
2018-04-12T10:05:16.302Z,46.10
2018-04-12T10:06:16.559Z,41.60
2018-04-12T10:07:16.808Z,42.70
2018-04-12T10:08:17.067Z,44.00
2018-04-12T10:09:17.316Z,45.10
2018-04-12T10:10:17.576Z,42.30
2018-04-12T10:11:17.828Z,44.00
2018-04-12T10:12:18.083Z,44.20
2018-04-12T10:13:18.335Z,40.40
2018-04-12T10:14:18.592Z,41.60
2018-04-12T10:15:18.851Z,43.00
2018-04-12T10:16:19.100Z,43.20
2018-04-12T10:17:19.358Z,43.10
2018-04-12T10:18:19.610Z,43.30
2018-04-12T10:19:19.868Z,41.90
2018-04-12T10:20:20.126Z,42.00
2018-04-12T10:21:20.379Z,43.50
2018-04-12T10:22:20.634Z,42.70
2018-04-12T10:23:20.889Z,44.60
2018-04-12T10:24:21.144Z,42.10
2018-04-12T10:25:21.400Z,43.40
2018-04-12T10:26:21.653Z,41.30
2018-04-12T10:27:21.899Z,40.00
2018-04-12T10:28:22.174Z,43.70
2018-04-12T10:29:22.429Z,42.70
2018-04-12T10:30:22.686Z,40.40
2018-04-12T10:31:22.943Z,41.40
2018-04-12T10:32:23.195Z,43.30
2018-04-12T10:33:23.452Z,41.40
2018-04-12T10:34:23.707Z,42.10
2018-04-12T10:35:23.963Z,41.40
2018-04-12T10:36:24.217Z,41.10
2018-04-12T10:37:24.475Z,40.90
2018-04-12T10:38:24.729Z,39.00
2018-04-12T10:39:24.986Z,39.50
2018-04-12T10:40:25.239Z,35.60
2018-04-12T10:41:25.494Z,38.50
2018-04-12T10:42:25.749Z,37.90
2018-04-12T10:43:26.005Z,37.90
2018-04-12T10:44:26.311Z,37.20
2018-04-12T10:45:26.519Z,38.20
2018-04-12T10:46:26.779Z,38.70
2018-04-12T10:47:27.029Z,38.70
2018-04-12T10:48:27.284Z,40.90
2018-04-12T10:49:27.540Z,39.30
2018-04-12T10:50:27.797Z,38.70
2018-04-12T10:51:28.050Z,38.10
2018-04-12T10:52:28.306Z,37.80
2018-04-12T10:53:28.560Z,37.20
2018-04-12T10:54:28.819Z,36.90
2018-04-12T10:55:29.071Z,37.10
2018-04-12T10:56:29.328Z,36.80
2018-04-12T10:57:29.585Z,36.20
2018-04-12T10:58:29.841Z,36.60
2018-04-12T10:59:30.097Z,34.10
2018-04-12T11:00:30.354Z,36.00
2018-04-12T11:01:30.612Z,35.50
2018-04-12T11:02:30.865Z,35.40
2018-04-12T11:03:31.124Z,34.50
2018-04-12T11:04:31.380Z,35.90
2018-04-12T11:05:31.636Z,32.60
2018-04-12T11:06:31.892Z,33.50
2018-04-12T11:07:32.152Z,32.80
2018-04-12T11:08:32.405Z,32.10
2018-04-12T11:09:32.663Z,32.60
2018-04-12T11:10:32.922Z,32.40
2018-04-12T11:11:33.178Z,31.30
2018-04-12T11:12:33.434Z,31.50
2018-04-12T11:13:33.690Z,31.80
2018-04-12T11:14:33.955Z,30.30
2018-04-12T11:15:34.206Z,29.60
2018-04-12T11:16:34.462Z,31.20
2018-04-12T11:17:34.733Z,30.40
2018-04-12T11:18:34.998Z,31.20
2018-04-12T11:19:35.250Z,28.60
2018-04-12T11:20:35.504Z,28.90
2018-04-12T11:21:35.769Z,29.10
2018-04-12T11:22:36.029Z,28.50
2018-04-12T11:23:36.284Z,27.70
2018-04-12T11:24:36.542Z,28.60
2018-04-12T11:25:36.826Z,29.40
2018-04-12T11:26:37.054Z,27.30
2018-04-12T11:27:37.315Z,28.60
2018-04-12T11:28:37.626Z,27.40
2018-04-12T11:29:37.832Z,26.80
2018-04-12T11:30:38.094Z,27.10
2018-04-12T11:31:38.345Z,27.00
2018-04-12T11:32:38.604Z,28.30
2018-04-12T11:33:38.860Z,27.70
2018-04-12T11:34:39.116Z,27.40
2018-04-12T11:35:39.375Z,25.60
2018-04-12T11:36:39.629Z,25.20
2018-04-12T11:37:39.890Z,27.50
2018-04-12T11:38:40.147Z,27.00
2018-04-12T11:39:40.405Z,25.40
2018-04-12T11:40:40.662Z,24.20
2018-04-12T11:41:40.918Z,24.90
2018-04-12T11:42:41.177Z,23.00
2018-04-12T11:43:41.432Z,23.70
2018-04-12T11:44:41.691Z,24.20
2018-04-12T11:45:41.950Z,24.20
2018-04-12T11:46:42.221Z,22.80
2018-04-12T11:47:42.464Z,24.00
2018-04-12T11:48:42.743Z,22.50
2018-04-12T11:49:43.012Z,22.50
2018-04-12T11:50:43.258Z,21.60
2018-04-12T11:51:43.518Z,22.70
2018-04-12T11:52:43.809Z,22.40
2018-04-12T11:53:44.071Z,22.40
2018-04-12T11:54:44.334Z,22.30
2018-04-12T11:55:44.589Z,22.70
2018-04-12T11:56:44.846Z,22.20
2018-04-12T11:57:45.109Z,21.00
2018-04-12T11:58:45.366Z,19.20
2018-04-12T11:59:45.625Z,18.70
2018-04-12T12:00:45.886Z,19.70
2018-04-12T12:01:46.144Z,19.00
2018-04-12T12:02:46.445Z,20.80
2018-04-12T12:03:46.706Z,19.60
2018-04-12T12:04:46.964Z,21.00
2018-04-12T12:05:47.223Z,18.70
2018-04-12T12:06:47.573Z,19.40
2018-04-12T12:07:47.949Z,19.30
2018-04-12T12:08:48.235Z,19.20
2018-04-12T12:09:48.543Z,18.60
2018-04-12T12:10:48.987Z,18.90
2018-04-12T12:11:49.303Z,20.20
2018-04-12T12:12:49.571Z,20.60
2018-04-12T12:13:49.867Z,19.40
2018-04-12T12:14:50.130Z,21.70
2018-04-12T12:15:50.391Z,17.90
2018-04-12T12:16:50.634Z,18.70
2018-04-12T12:17:50.909Z,20.00
2018-04-12T12:18:51.167Z,18.70
2018-04-12T12:19:51.431Z,22.30
2018-04-12T12:20:51.715Z,21.20
2018-04-12T12:21:51.971Z,19.40
2018-04-12T12:22:52.225Z,21.00
2018-04-12T12:23:52.621Z,21.10
2018-04-12T12:24:52.841Z,20.60
2018-04-12T12:25:53.097Z,22.90
2018-04-12T12:26:53.391Z,20.30
2018-04-12T12:27:53.655Z,20.60
2018-04-12T12:28:53.934Z,22.30
2018-04-12T12:29:54.161Z,20.20
2018-04-12T12:30:54.422Z,20.70
2018-04-12T12:31:54.682Z,21.70
2018-04-12T12:32:54.937Z,21.80
2018-04-12T12:33:55.194Z,23.20
2018-04-12T12:34:55.449Z,23.20
2018-04-12T12:35:55.710Z,24.20
2018-04-12T12:36:55.980Z,27.40
2018-04-12T12:37:56.293Z,27.40
2018-04-12T12:38:56.551Z,27.20
2018-04-12T12:39:56.810Z,24.70
2018-04-12T12:40:57.156Z,24.30
2018-04-12T12:41:57.380Z,25.70
2018-04-12T12:42:57.665Z,27.20